createdAt,value
2022-12-04T00:00:32.398Z,102014.31
2022-12-04T00:02:59.639Z,102009.19
2022-12-04T00:05:26.206Z,102016.03
2022-12-04T00:07:52.813Z,102008.34
2022-12-04T00:10:19.275Z,102014.31
2022-12-04T00:12:45.844Z,102012.63
2022-12-04T00:15:27.514Z,102010.91
2022-12-04T00:17:54.303Z,102014.31
2022-12-04T00:20:21.098Z,102008.34
2022-12-04T00:22:47.704Z,102001.47
2022-12-04T00:25:14.147Z,102000.63
2022-12-04T00:27:40.655Z,101999.75
2022-12-04T00:30:08.183Z,101993.75
2022-12-04T00:32:34.898Z,101992.91
2022-12-04T00:35:01.486Z,101983.47
2022-12-04T00:37:28.543Z,101986.91
2022-12-04T00:39:55.357Z,101988.63
2022-12-04T00:42:21.954Z,101982.59
2022-12-04T00:44:48.576Z,101988.63
2022-12-04T00:47:15.106Z,101984.34
2022-12-04T00:49:41.637Z,101988.63
2022-12-04T00:52:08.144Z,101978.31
2022-12-04T00:54:34.591Z,101991.19
2022-12-04T00:57:01.084Z,101987.75
2022-12-04T00:59:27.503Z,101982.59
2022-12-04T01:01:53.970Z,101986.91
2022-12-04T01:04:21.131Z,101980.91
2022-12-04T01:06:47.814Z,101984.34
2022-12-04T01:09:14.549Z,101987.75
2022-12-04T01:11:41.365Z,101983.47
2022-12-04T01:14:08.208Z,101980.91
2022-12-04T01:16:38.051Z,101980.91
2022-12-04T01:19:07.272Z,101986.03
2022-12-04T01:21:34.434Z,101983.47
2022-12-04T01:24:01.006Z,101986.91
2022-12-04T01:26:28.516Z,101983.47
2022-12-04T01:28:55.056Z,101979.19
2022-12-04T01:31:22.827Z,101975.75
2022-12-04T01:33:49.735Z,101980.03
2022-12-04T01:36:20.555Z,101979.19
2022-12-04T01:38:47.109Z,101984.34
2022-12-04T01:41:15.528Z,101984.34
2022-12-04T01:43:42.638Z,101977.47
2022-12-04T01:46:10.507Z,101983.47
2022-12-04T01:48:45.474Z,101974.88
2022-12-04T01:51:16.432Z,101975.75
2022-12-04T01:53:46.939Z,101975.75
2022-12-04T01:56:14.713Z,101972.31
2022-12-04T01:58:46.214Z,101982.59
2022-12-04T02:01:13.219Z,101980.91
2022-12-04T02:03:39.838Z,101986.03
2022-12-04T02:06:07.615Z,101986.03
2022-12-04T02:08:35.829Z,101977.47
2022-12-04T02:11:34.885Z,101986.91
2022-12-04T02:14:19.570Z,101993.75
2022-12-04T02:16:49.319Z,101986.06
2022-12-04T02:19:37.191Z,101986.91
2022-12-04T02:22:12.847Z,101985.19
2022-12-04T02:27:59.948Z,101982.59
2022-12-04T02:30:29.415Z,101983.47
2022-12-04T02:33:10.298Z,101988.63
2022-12-04T02:35:42.555Z,101980.91
2022-12-04T02:38:16.499Z,101979.19
2022-12-04T02:41:23.012Z,101982.63
2022-12-04T02:43:52.934Z,101977.47
2022-12-04T02:46:29.265Z,101974.06
2022-12-04T02:49:01.627Z,101975.75
2022-12-04T02:51:32.514Z,101968.91
2022-12-04T02:54:16.600Z,101964.63
2022-12-04T02:56:47.992Z,101964.63
2022-12-04T02:59:23.104Z,101953.47
2022-12-04T03:01:54.009Z,101959.47
2022-12-04T03:04:25.007Z,101958.59
2022-12-04T03:07:06.467Z,101962.91
2022-12-04T03:09:45.167Z,101960.34
2022-12-04T03:12:33.539Z,101958.63
2022-12-04T03:15:10.288Z,101952.59
2022-12-04T03:17:45.396Z,101954.34
2022-12-04T03:20:15.443Z,101950.03
2022-12-04T03:22:46.123Z,101945.75
2022-12-04T03:25:13.859Z,101938.06
2022-12-04T03:28:00.138Z,101938.06
2022-12-04T03:30:36.612Z,101947.44
2022-12-04T03:33:11.309Z,101937.16
2022-12-04T03:35:59.840Z,101927.75
2022-12-04T03:38:52.572Z,101929.47
2022-12-04T03:41:27.279Z,101927.75
2022-12-04T03:44:17.429Z,101938.88
2022-12-04T03:47:20.845Z,101937.19
2022-12-04T03:49:56.177Z,101940.59
2022-12-04T03:52:58.647Z,101949.19
2022-12-04T03:55:51.977Z,101944.03
2022-12-04T03:58:25.831Z,101944.88
2022-12-04T04:00:54.535Z,101945.75
2022-12-04T04:03:26.173Z,101943.19
2022-12-04T04:05:58.791Z,101945.75
2022-12-04T04:08:33.924Z,101939.75
2022-12-04T04:11:18.591Z,101940.63
2022-12-04T04:14:09.759Z,101937.16
2022-12-04T04:16:58.804Z,101941.47
2022-12-04T04:19:48.393Z,101943.19
2022-12-04T04:22:37.811Z,101932.91
2022-12-04T04:25:09.073Z,101944.91
2022-12-04T04:27:35.818Z,101943.19
2022-12-04T04:30:02.743Z,101938.03
2022-12-04T04:32:41.850Z,101933.75
2022-12-04T04:35:43.342Z,101934.59
2022-12-04T04:38:33.117Z,101927.75
2022-12-04T04:41:10.337Z,101940.63
2022-12-04T04:44:12.556Z,101938.91
2022-12-04T04:46:45.781Z,101938.06
2022-12-04T04:49:15.872Z,101938.06
2022-12-04T04:51:44.429Z,101931.16
2022-12-04T04:54:14.688Z,101935.47
2022-12-04T04:56:43.300Z,101932.03
2022-12-04T04:59:10.405Z,101928.59
2022-12-04T05:01:38.907Z,101926.03
2022-12-04T05:04:07.243Z,101938.06
2022-12-04T05:06:34.192Z,101927.75
2022-12-04T05:09:00.773Z,101935.47
2022-12-04T05:11:27.374Z,101942.31
2022-12-04T05:13:53.971Z,101936.31
2022-12-04T05:16:20.695Z,101940.59
2022-12-04T05:19:05.822Z,101942.31
2022-12-04T05:21:33.521Z,101942.31
2022-12-04T05:24:00.507Z,101938.88
2022-12-04T05:26:26.991Z,101951.75
2022-12-04T05:28:53.634Z,101948.34
2022-12-04T05:31:20.311Z,101945.75
2022-12-04T05:33:46.977Z,101950.03
2022-12-04T05:36:13.511Z,101952.63
2022-12-04T05:38:40.161Z,101950.91
2022-12-04T05:41:07.137Z,101956.88
2022-12-04T05:43:34.335Z,101956.91
2022-12-04T05:46:03.086Z,101947.44
2022-12-04T05:48:30.415Z,101950.03
2022-12-04T05:50:57.007Z,101953.47
2022-12-04T05:53:23.653Z,101953.47
2022-12-04T05:55:59.229Z,101948.34
2022-12-04T05:58:26.239Z,101946.59
2022-12-04T06:00:53.249Z,101951.75
2022-12-04T06:03:20.600Z,101945.75
2022-12-04T06:05:47.426Z,101932.03
2022-12-04T06:08:14.358Z,101936.34
2022-12-04T06:10:40.895Z,101935.47
2022-12-04T06:13:07.633Z,101940.59
2022-12-04T06:15:40.602Z,101941.47
2022-12-04T06:18:07.340Z,101943.19
2022-12-04T06:20:34.457Z,101941.47
2022-12-04T06:23:01.662Z,101949.19
2022-12-04T06:25:28.871Z,101945.75
2022-12-04T06:27:55.608Z,101942.31
2022-12-04T06:30:22.211Z,101949.19
2022-12-04T06:32:48.771Z,101947.47
2022-12-04T06:35:15.420Z,101945.78
2022-12-04T06:37:41.888Z,101951.75
2022-12-04T06:40:09.246Z,101944.91
2022-12-04T06:42:36.266Z,101954.31
2022-12-04T06:45:02.933Z,101952.59
2022-12-04T06:47:30.006Z,101953.47
2022-12-04T06:49:56.763Z,101951.78
2022-12-04T06:52:23.460Z,101948.34
2022-12-04T06:54:49.870Z,101944.88
2022-12-04T06:57:16.355Z,101944.91
2022-12-04T06:59:43.003Z,101950.03
2022-12-04T07:02:09.637Z,101944.91
2022-12-04T07:04:36.407Z,101946.59
2022-12-04T07:07:02.954Z,101952.59
2022-12-04T07:09:29.922Z,101950.91
2022-12-04T07:11:56.388Z,101956.03
2022-12-04T07:14:22.830Z,101955.19
2022-12-04T07:16:49.437Z,101951.75
2022-12-04T07:19:16.283Z,101957.75
2022-12-04T07:21:43.070Z,101950.88
2022-12-04T07:24:15.861Z,101962.03
2022-12-04T07:26:43.375Z,101960.34
2022-12-04T07:29:10.623Z,101958.63
2022-12-04T07:31:38.074Z,101952.59
2022-12-04T07:34:04.741Z,101958.59
2022-12-04T07:36:31.124Z,101952.63
2022-12-04T07:38:58.483Z,101957.75
2022-12-04T07:41:25.318Z,101951.75
2022-12-04T07:43:51.932Z,101952.63
2022-12-04T07:46:22.073Z,101957.75
2022-12-04T07:48:50.355Z,101958.59
2022-12-04T07:51:22.440Z,101968.91
2022-12-04T07:53:50.645Z,101963.75
2022-12-04T07:56:18.312Z,101957.75
2022-12-04T07:58:45.817Z,101962.03
2022-12-04T08:01:16.619Z,101963.75
2022-12-04T08:03:48.046Z,101967.16
2022-12-04T08:06:19.008Z,101968.06
2022-12-04T08:08:49.818Z,101974.03
2022-12-04T08:11:19.220Z,101969.75
2022-12-04T08:13:46.289Z,101971.47
2022-12-04T08:16:14.626Z,101978.34
2022-12-04T08:18:47.088Z,101979.19
2022-12-04T08:21:21.357Z,101979.19
2022-12-04T08:23:52.647Z,101980.91
2022-12-04T08:26:22.226Z,101987.78
2022-12-04T08:28:50.950Z,101984.34
2022-12-04T08:31:21.503Z,101982.63
2022-12-04T08:33:50.288Z,101986.03
2022-12-04T08:36:20.844Z,101991.19
2022-12-04T08:38:49.370Z,101982.59
2022-12-04T08:41:24.172Z,101992.91
2022-12-04T08:43:55.281Z,101996.34
2022-12-04T08:46:24.850Z,102000.63
2022-12-04T08:48:54.570Z,101999.78
2022-12-04T08:51:25.172Z,101994.63
2022-12-04T08:53:57.042Z,102000.63
2022-12-04T08:56:27.210Z,102008.34
2022-12-04T08:58:56.529Z,102002.34
2022-12-04T09:01:24.108Z,102000.63
2022-12-04T09:03:50.972Z,101994.63
2022-12-04T09:06:18.635Z,102005.78
2022-12-04T09:08:45.781Z,102010.91
2022-12-04T09:11:16.033Z,102004.91
2022-12-04T09:13:45.020Z,102005.75
2022-12-04T09:16:14.863Z,102002.34
2022-12-04T09:18:42.169Z,102002.34
2022-12-04T09:21:12.871Z,102010.91
2022-12-04T09:23:40.255Z,102002.34
2022-12-04T09:26:25.037Z,101991.19
2022-12-04T09:28:55.808Z,102000.63
2022-12-04T09:31:23.963Z,102004.06
2022-12-04T09:33:53.776Z,101997.19
2022-12-04T09:36:20.965Z,102001.47
2022-12-04T09:38:50.261Z,102005.75
2022-12-04T09:41:31.729Z,101998.91
2022-12-04T09:44:12.268Z,102000.63
2022-12-04T09:46:49.537Z,102001.47
2022-12-04T09:49:23.813Z,102003.22
2022-12-04T09:51:54.222Z,102006.63
2022-12-04T09:54:25.931Z,102002.34
2022-12-04T09:57:01.733Z,102005.75
2022-12-04T09:59:31.889Z,101998.94
2022-12-04T10:02:33.887Z,101996.34
2022-12-04T10:05:00.963Z,101989.47
2022-12-04T10:07:43.392Z,101994.63
2022-12-04T10:10:23.129Z,101992.06
2022-12-04T10:12:52.709Z,101982.59
2022-12-04T10:15:48.110Z,101992.91
2022-12-04T10:18:52.369Z,101987.75
2022-12-04T10:21:24.928Z,101986.91
2022-12-04T10:24:13.852Z,101985.19
2022-12-04T10:26:45.251Z,101993.75
2022-12-04T10:29:47.345Z,101994.59
2022-12-04T10:32:22.167Z,101990.31
2022-12-04T10:35:00.726Z,101988.59
2022-12-04T10:37:28.454Z,101989.44
2022-12-04T10:40:08.675Z,101992.91
2022-12-04T10:43:11.395Z,101994.59
2022-12-04T10:45:37.836Z,101992.03
2022-12-04T10:48:08.020Z,101992.91
2022-12-04T10:50:34.795Z,101976.56
2022-12-04T10:53:01.496Z,101980.88
2022-12-04T10:55:33.786Z,101985.16
2022-12-04T10:58:02.866Z,101987.75
2022-12-04T11:00:35.633Z,101977.44
2022-12-04T11:03:09.545Z,101979.16
2022-12-04T11:05:46.375Z,101976.59
2022-12-04T11:08:32.429Z,101970.56
2022-12-04T11:11:11.726Z,101969.69
2022-12-04T11:13:39.678Z,101967.13
2022-12-04T11:16:09.030Z,101964.56
2022-12-04T11:18:57.407Z,101964.56
2022-12-04T11:21:28.153Z,101968.84
2022-12-04T11:23:54.929Z,101970.56
2022-12-04T11:26:41.956Z,101959.41
2022-12-04T11:29:15.988Z,101964.53
2022-12-04T11:31:48.880Z,101956.84
2022-12-04T11:34:20.920Z,101961.09
2022-12-04T11:36:57.599Z,101961.09
2022-12-04T11:39:38.054Z,101958.50
2022-12-04T11:42:05.958Z,101954.22
2022-12-04T11:44:36.511Z,101947.34
2022-12-04T11:47:05.490Z,101943.03
2022-12-04T11:49:33.082Z,101933.63
2022-12-04T11:52:28.938Z,101931.88
2022-12-04T11:55:13.098Z,101927.59
2022-12-04T11:57:50.276Z,101920.72
2022-12-04T12:00:21.598Z,101925.00
2022-12-04T12:02:57.983Z,101906.97
2022-12-04T12:05:24.530Z,101905.25
2022-12-04T12:08:16.253Z,101914.72
2022-12-04T12:10:57.112Z,101906.13
2022-12-04T12:14:14.517Z,101898.38
2022-12-04T12:16:48.341Z,101899.25
2022-12-04T12:19:35.924Z,101902.66
2022-12-04T12:22:15.868Z,101901.78
2022-12-04T12:24:54.696Z,101899.22
2022-12-04T12:27:40.266Z,101904.38
2022-12-04T12:30:17.544Z,101905.22
2022-12-04T12:33:09.745Z,101894.06
2022-12-04T12:35:46.916Z,101904.34
2022-12-04T12:38:19.501Z,101900.06
2022-12-04T12:41:12.762Z,101898.34
2022-12-04T12:43:40.998Z,101894.88
2022-12-04T12:46:16.718Z,101887.19
2022-12-04T12:48:58.766Z,101903.47
2022-12-04T12:51:33.168Z,101897.47
2022-12-04T12:54:19.617Z,101892.31
2022-12-04T12:56:52.393Z,101894.88
2022-12-04T12:59:25.420Z,101894.00
2022-12-04T13:02:07.044Z,101892.28
2022-12-04T13:04:41.767Z,101887.97
2022-12-04T13:07:20.910Z,101898.25
2022-12-04T13:10:02.230Z,101889.69
2022-12-04T13:12:29.523Z,101894.81
2022-12-04T13:14:56.006Z,101882.81
2022-12-04T13:17:36.245Z,101881.09
2022-12-04T13:20:10.465Z,101875.06
2022-12-04T13:23:05.103Z,101875.06
2022-12-04T13:25:44.989Z,101872.50
2022-12-04T13:28:26.584Z,101877.66
2022-12-04T13:30:58.284Z,101884.50
2022-12-04T13:33:54.887Z,101871.66
2022-12-04T13:36:39.919Z,101869.09
2022-12-04T13:39:20.217Z,101872.50
2022-12-04T13:41:47.188Z,101878.53
2022-12-04T13:44:20.861Z,101872.50
2022-12-04T13:47:08.152Z,101875.97
2022-12-04T13:49:37.286Z,101869.94
2022-12-04T13:52:06.514Z,101880.28
2022-12-04T13:54:35.386Z,101875.97
2022-12-04T13:57:16.957Z,101881.13
2022-12-04T13:59:44.133Z,101882.81
2022-12-04T14:02:29.529Z,101886.28
2022-12-04T14:05:02.497Z,101893.16
2022-12-04T14:07:34.950Z,101894.84
2022-12-04T14:10:07.565Z,101894.00
2022-12-04T14:12:39.676Z,101895.69
2022-12-04T14:15:22.530Z,101894.81
2022-12-04T14:18:10.935Z,101895.69
2022-12-04T14:20:38.801Z,101894.84
2022-12-04T14:23:26.028Z,101894.84
2022-12-04T14:25:56.989Z,101895.69
2022-12-04T14:28:25.476Z,101899.13
2022-12-04T14:31:19.991Z,101893.13
2022-12-04T14:33:56.184Z,101888.84
2022-12-04T14:36:28.981Z,101891.41
2022-12-04T14:39:05.018Z,101894.00
2022-12-04T14:41:32.206Z,101896.56
2022-12-04T14:43:59.225Z,101893.13
2022-12-04T14:46:44.472Z,101892.28
2022-12-04T14:49:31.637Z,101894.84
2022-12-04T14:52:24.026Z,101893.13
2022-12-04T14:54:50.423Z,101900.00
2022-12-04T14:58:21.625Z,101893.13
2022-12-04T15:00:53.487Z,101895.75
2022-12-04T15:03:20.700Z,101896.59
2022-12-04T15:05:47.752Z,101891.44
2022-12-04T15:08:15.222Z,101895.72
2022-12-04T15:11:08.872Z,101892.25
2022-12-04T15:13:37.860Z,101888.00
2022-12-04T15:16:24.979Z,101886.28
2022-12-04T15:18:59.402Z,101886.28
2022-12-04T15:21:42.246Z,101901.75
2022-12-04T15:24:23.265Z,101894.88
2022-12-04T15:26:52.132Z,101891.44
2022-12-04T15:29:23.426Z,101888.88
2022-12-04T15:31:56.826Z,101894.88
2022-12-04T15:34:54.634Z,101898.31
2022-12-04T15:37:28.388Z,101897.44
2022-12-04T15:39:56.461Z,101900.00
2022-12-04T15:42:23.099Z,101908.56
2022-12-04T15:45:03.222Z,101902.56
2022-12-04T15:47:58.253Z,101909.44
2022-12-04T15:50:27.486Z,101903.41
2022-12-04T15:52:59.187Z,101918.88
2022-12-04T15:55:30.548Z,101918.03
2022-12-04T15:58:04.789Z,101919.75
2022-12-04T16:00:36.687Z,101914.59
2022-12-04T16:03:20.874Z,101924.03
2022-12-04T16:05:50.697Z,101925.75
2022-12-04T16:08:32.208Z,101928.34
2022-12-04T16:11:22.089Z,101927.47
2022-12-04T16:14:06.416Z,101929.16
2022-12-04T16:16:33.189Z,101922.28
2022-12-04T16:19:05.554Z,101921.44
2022-12-04T16:21:41.388Z,101921.44
2022-12-04T16:24:11.014Z,101922.25
2022-12-04T16:26:37.566Z,101934.28
2022-12-04T16:29:04.111Z,101927.38
2022-12-04T16:31:30.833Z,101923.09
2022-12-04T16:33:57.467Z,101921.38
2022-12-04T16:36:23.971Z,101919.66
2022-12-04T16:38:50.483Z,101913.66
2022-12-04T16:41:18.588Z,101921.38
2022-12-04T16:43:45.368Z,101915.34
2022-12-04T16:46:16.421Z,101923.91
2022-12-04T16:48:44.399Z,101925.66
2022-12-04T16:51:23.872Z,101924.78
2022-12-04T16:53:51.936Z,101928.22
2022-12-04T16:56:19.796Z,101926.50
2022-12-04T16:58:46.920Z,101922.19
2022-12-04T17:01:41.792Z,101923.88
2022-12-04T17:04:12.342Z,101920.44
2022-12-04T17:06:39.048Z,101911.84
2022-12-04T17:09:05.759Z,101915.25
2022-12-04T17:14:18.053Z,101915.25
2022-12-04T17:16:47.194Z,101915.22
2022-12-04T17:19:14.115Z,101919.53
2022-12-04T17:21:41.691Z,101916.09
2022-12-04T17:24:08.348Z,101915.22
2022-12-04T17:26:35.148Z,101924.69
2022-12-04T17:29:01.688Z,101923.81
2022-12-04T17:31:28.300Z,101918.66
2022-12-04T17:33:58.518Z,101919.47
2022-12-04T17:36:27.447Z,101928.06
2022-12-04T17:39:00.156Z,101922.91
2022-12-04T17:41:27.199Z,101923.78
2022-12-04T17:43:53.910Z,101933.19
2022-12-04T17:46:24.371Z,101939.22
2022-12-04T17:48:52.117Z,101939.19
2022-12-04T17:51:23.183Z,101934.91
2022-12-04T17:53:50.505Z,101939.16
2022-12-04T17:56:20.352Z,101935.72
2022-12-04T17:58:51.661Z,101928.00
2022-12-04T18:01:23.685Z,101932.28
2022-12-04T18:04:04.893Z,101928.00
2022-12-04T18:06:36.446Z,101931.44
2022-12-04T18:09:06.704Z,101932.28
2022-12-04T18:11:37.375Z,101945.19
2022-12-04T18:14:11.698Z,101946.03
2022-12-04T18:16:43.548Z,101940.88
2022-12-04T18:19:10.678Z,101952.03
2022-12-04T18:21:37.595Z,101945.16
2022-12-04T18:24:08.537Z,101952.00
2022-12-04T18:26:41.269Z,101952.88
2022-12-04T18:29:08.985Z,101952.88
2022-12-04T18:31:35.774Z,101952.03
2022-12-04T18:34:04.494Z,101953.75
2022-12-04T18:36:31.864Z,101956.31
2022-12-04T18:39:01.292Z,101958.91
2022-12-04T18:41:29.549Z,101957.19
2022-12-04T18:43:57.359Z,101954.59
2022-12-04T18:46:24.927Z,101956.31
2022-12-04T18:48:58.491Z,101952.88
2022-12-04T18:51:31.339Z,101952.88
2022-12-04T18:54:00.707Z,101948.59
2022-12-04T18:56:28.242Z,101951.16
2022-12-04T18:59:05.483Z,101953.75
2022-12-04T19:01:32.320Z,101958.06
2022-12-04T19:04:02.553Z,101957.16
2022-12-04T19:06:44.154Z,101957.16
2022-12-04T19:09:18.499Z,101945.16
2022-12-04T19:11:46.000Z,101956.34
2022-12-04T19:14:22.367Z,101950.31
2022-12-04T19:16:50.232Z,101949.44
2022-12-04T19:19:16.982Z,101951.19
2022-12-04T19:21:43.643Z,101953.75
2022-12-04T19:24:11.814Z,101952.94
2022-12-04T19:26:38.921Z,101954.63
2022-12-04T19:29:07.289Z,101953.78
2022-12-04T19:31:36.885Z,101951.22
2022-12-04T19:34:04.437Z,101943.47
2022-12-04T19:36:33.435Z,101952.06
2022-12-04T19:39:03.019Z,101953.75
2022-12-04T19:41:31.605Z,101956.34
2022-12-04T19:43:59.899Z,101954.59
2022-12-04T19:46:30.262Z,101954.59
2022-12-04T19:49:03.166Z,101960.59
2022-12-04T19:51:32.409Z,101952.88
2022-12-04T19:54:02.657Z,101947.72
2022-12-04T19:56:32.070Z,101950.28
2022-12-04T19:59:01.934Z,101958.84
2022-12-04T20:01:32.232Z,101963.16
2022-12-04T20:04:09.744Z,101959.75
2022-12-04T20:06:42.637Z,101956.28
2022-12-04T20:09:13.584Z,101950.28
2022-12-04T20:11:43.402Z,101955.41
2022-12-04T20:14:10.305Z,101955.41
2022-12-04T20:16:38.238Z,101959.72
2022-12-04T20:19:06.772Z,101957.13
2022-12-04T20:21:33.924Z,101956.25
2022-12-04T20:24:02.909Z,101961.41
2022-12-04T20:26:33.986Z,101957.97
2022-12-04T20:29:02.193Z,101957.91
2022-12-04T20:31:35.324Z,101951.03
2022-12-04T20:34:04.731Z,101953.63
2022-12-04T20:36:36.769Z,101951.06
2022-12-04T20:39:04.498Z,101946.75
2022-12-04T20:41:33.470Z,101939.00
2022-12-04T20:44:02.936Z,101942.44
2022-12-04T20:46:32.554Z,101955.34
2022-12-04T20:49:03.251Z,101947.59
2022-12-04T20:51:39.188Z,101956.19
2022-12-04T20:54:07.364Z,101951.91
2022-12-04T20:56:36.847Z,101955.31
2022-12-04T20:59:07.640Z,101949.31
2022-12-04T21:01:36.722Z,101951.03
2022-12-04T21:04:04.248Z,101951.00
2022-12-04T21:06:36.939Z,101952.69
2022-12-04T21:09:10.591Z,101954.34
2022-12-04T21:11:40.022Z,101953.50
2022-12-04T21:14:30.260Z,101956.09
2022-12-04T21:16:57.593Z,101951.81
2022-12-04T21:19:24.695Z,101950.94
2022-12-04T21:21:52.090Z,101962.13
2022-12-04T21:24:20.914Z,101961.25
2022-12-04T21:26:48.100Z,101959.50
2022-12-04T21:29:15.677Z,101957.78
2022-12-04T21:31:43.007Z,101958.66
2022-12-04T21:34:13.328Z,101960.34
2022-12-04T21:36:40.342Z,101955.16
2022-12-04T21:39:08.008Z,101949.13
2022-12-04T21:41:53.687Z,101955.16
2022-12-04T21:44:22.590Z,101956.88
2022-12-04T21:46:52.040Z,101953.41
2022-12-04T21:49:40.139Z,101948.25
2022-12-04T21:52:14.030Z,101952.53
2022-12-04T21:54:55.311Z,101950.81
2022-12-04T21:57:36.558Z,101945.66
2022-12-04T22:00:04.383Z,101950.78
2022-12-04T22:02:41.309Z,101953.38
2022-12-04T22:05:18.872Z,101948.19
2022-12-04T22:07:46.792Z,101951.63
2022-12-04T22:10:34.507Z,101957.69
2022-12-04T22:13:03.480Z,101953.38
2022-12-04T22:15:40.131Z,101957.63
2022-12-04T22:18:12.291Z,101954.19
2022-12-04T22:20:42.958Z,101954.16
2022-12-04T22:23:12.220Z,101953.31
2022-12-04T22:25:40.683Z,101955.00
2022-12-04T22:28:07.269Z,101947.25
2022-12-04T22:30:34.220Z,101950.69
2022-12-04T22:33:00.771Z,101948.06
2022-12-04T22:35:27.363Z,101949.81
2022-12-04T22:37:54.162Z,101941.19
2022-12-04T22:40:20.683Z,101948.91
2022-12-04T22:42:47.211Z,101953.22
2022-12-04T22:45:13.826Z,101957.50
2022-12-04T22:47:40.383Z,101954.88
2022-12-04T22:50:07.815Z,101954.03
2022-12-04T22:52:34.321Z,101949.72
2022-12-04T22:55:00.803Z,101954.00
2022-12-04T22:57:28.592Z,101955.75
2022-12-04T22:59:55.792Z,101950.53
2022-12-04T23:02:23.547Z,101953.97
2022-12-04T23:04:50.303Z,101953.94
2022-12-04T23:07:16.987Z,101946.22
2022-12-04T23:09:43.581Z,101947.09
2022-12-04T23:12:10.312Z,101947.91
2022-12-04T23:14:36.968Z,101946.16
2022-12-04T23:17:04.471Z,101943.56
2022-12-04T23:19:31.343Z,101943.56
2022-12-04T23:21:58.235Z,101939.25
2022-12-04T23:24:25.615Z,101943.53
2022-12-04T23:26:52.309Z,101936.63
2022-12-04T23:29:51.010Z,101938.38
2022-12-04T23:32:05.827Z,101934.91
2022-12-04T23:34:32.650Z,101936.56
2022-12-04T23:36:59.499Z,101937.44
2022-12-04T23:39:26.173Z,101928.81
2022-12-04T23:41:52.600Z,101927.97
2022-12-04T23:44:19.142Z,101937.38
2022-12-04T23:46:45.845Z,101931.38
2022-12-04T23:49:12.591Z,101940.81
2022-12-04T23:51:39.382Z,101940.78
2022-12-04T23:54:06.071Z,101931.34
2022-12-04T23:56:32.710Z,101938.19
2022-12-04T23:58:59.708Z,101933.00
